sensor_id;sensor_type;location;lat;lon;timestamp;temperature;humidity
4578;DHT22;2301;47.354;8.528;2023-08-30T00:01:43;17.20;90.50
4578;DHT22;2301;47.354;8.528;2023-08-30T00:04:10;17.30;90.20
4578;DHT22;2301;47.354;8.528;2023-08-30T00:06:37;17.30;90.20
4578;DHT22;2301;47.354;8.528;2023-08-30T00:09:04;17.30;90.10
4578;DHT22;2301;47.354;8.528;2023-08-30T00:11:31;17.30;90.10
4578;DHT22;2301;47.354;8.528;2023-08-30T00:14:04;17.30;90.10
4578;DHT22;2301;47.354;8.528;2023-08-30T00:16:32;17.30;90.10
4578;DHT22;2301;47.354;8.528;2023-08-30T00:18:59;17.30;90.20
4578;DHT22;2301;47.354;8.528;2023-08-30T00:21:26;17.30;90.10
4578;DHT22;2301;47.354;8.528;2023-08-30T00:23:53;17.30;90.10
4578;DHT22;2301;47.354;8.528;2023-08-30T00:26:20;17.20;90.00
4578;DHT22;2301;47.354;8.528;2023-08-30T00:28:47;17.30;90.00
4578;DHT22;2301;47.354;8.528;2023-08-30T00:31:15;17.30;90.10
4578;DHT22;2301;47.354;8.528;2023-08-30T00:33:42;17.30;90.10
4578;DHT22;2301;47.354;8.528;2023-08-30T00:36:09;17.30;90.00
4578;DHT22;2301;47.354;8.528;2023-08-30T00:38:36;17.30;90.00
4578;DHT22;2301;47.354;8.528;2023-08-30T00:41:03;17.30;90.00
4578;DHT22;2301;47.354;8.528;2023-08-30T00:43:29;17.30;90.30
4578;DHT22;2301;47.354;8.528;2023-08-30T00:45:57;17.40;90.00
4578;DHT22;2301;47.354;8.528;2023-08-30T00:48:25;17.40;90.00
4578;DHT22;2301;47.354;8.528;2023-08-30T00:50:52;17.40;89.80
4578;DHT22;2301;47.354;8.528;2023-08-30T00:53:19;17.40;89.70
4578;DHT22;2301;47.354;8.528;2023-08-30T00:55:46;17.40;89.70
4578;DHT22;2301;47.354;8.528;2023-08-30T00:58:13;17.40;89.70
4578;DHT22;2301;47.354;8.528;2023-08-30T01:00:40;17.40;89.60
4578;DHT22;2301;47.354;8.528;2023-08-30T01:03:07;17.40;89.70
4578;DHT22;2301;47.354;8.528;2023-08-30T01:05:35;17.40;89.60
4578;DHT22;2301;47.354;8.528;2023-08-30T01:08:03;17.40;89.80
4578;DHT22;2301;47.354;8.528;2023-08-30T01:10:41;17.40;89.80
4578;DHT22;2301;47.354;8.528;2023-08-30T01:13:13;17.40;89.30
4578;DHT22;2301;47.354;8.528;2023-08-30T01:15:42;17.30;89.20
4578;DHT22;2301;47.354;8.528;2023-08-30T01:18:10;17.30;89.40
4578;DHT22;2301;47.354;8.528;2023-08-30T01:20:39;17.20;89.20
4578;DHT22;2301;47.354;8.528;2023-08-30T01:23:19;17.20;89.60
4578;DHT22;2301;47.354;8.528;2023-08-30T01:25:55;17.20;89.80
4578;DHT22;2301;47.354;8.528;2023-08-30T01:28:28;17.20;89.90
4578;DHT22;2301;47.354;8.528;2023-08-30T01:30:56;17.20;90.00
4578;DHT22;2301;47.354;8.528;2023-08-30T01:33:24;17.20;90.00
4578;DHT22;2301;47.354;8.528;2023-08-30T01:35:53;17.20;90.10
4578;DHT22;2301;47.354;8.528;2023-08-30T01:38:21;17.20;90.00
4578;DHT22;2301;47.354;8.528;2023-08-30T01:40:50;17.20;90.10
4578;DHT22;2301;47.354;8.528;2023-08-30T01:43:19;17.30;90.10
4578;DHT22;2301;47.354;8.528;2023-08-30T01:45:52;17.30;90.10
4578;DHT22;2301;47.354;8.528;2023-08-30T01:48:22;17.30;90.00
4578;DHT22;2301;47.354;8.528;2023-08-30T01:50:50;17.30;90.00
4578;DHT22;2301;47.354;8.528;2023-08-30T01:53:17;17.30;90.00
4578;DHT22;2301;47.354;8.528;2023-08-30T01:55:44;17.30;89.90
4578;DHT22;2301;47.354;8.528;2023-08-30T01:58:11;17.30;89.90
4578;DHT22;2301;47.354;8.528;2023-08-30T02:00:38;17.20;89.50
4578;DHT22;2301;47.354;8.528;2023-08-30T02:03:11;17.20;89.40
4578;DHT22;2301;47.354;8.528;2023-08-30T02:05:43;17.20;89.40
4578;DHT22;2301;47.354;8.528;2023-08-30T02:08:16;17.20;89.50
4578;DHT22;2301;47.354;8.528;2023-08-30T02:10:48;17.20;89.50
4578;DHT22;2301;47.354;8.528;2023-08-30T02:13:16;17.20;89.40
4578;DHT22;2301;47.354;8.528;2023-08-30T02:15:44;17.20;89.40
4578;DHT22;2301;47.354;8.528;2023-08-30T02:18:13;17.20;89.40
4578;DHT22;2301;47.354;8.528;2023-08-30T02:20:40;17.20;89.40
4578;DHT22;2301;47.354;8.528;2023-08-30T02:23:09;17.20;89.50
4578;DHT22;2301;47.354;8.528;2023-08-30T02:25:36;17.20;89.50
4578;DHT22;2301;47.354;8.528;2023-08-30T02:28:03;17.20;89.70
4578;DHT22;2301;47.354;8.528;2023-08-30T02:30:30;17.20;89.60
4578;DHT22;2301;47.354;8.528;2023-08-30T02:32:57;17.20;89.80
4578;DHT22;2301;47.354;8.528;2023-08-30T02:35:25;17.30;89.80
4578;DHT22;2301;47.354;8.528;2023-08-30T02:37:52;17.20;89.60
4578;DHT22;2301;47.354;8.528;2023-08-30T02:40:19;17.20;89.60
4578;DHT22;2301;47.354;8.528;2023-08-30T02:42:46;17.20;90.20
4578;DHT22;2301;47.354;8.528;2023-08-30T02:45:13;17.20;89.80
4578;DHT22;2301;47.354;8.528;2023-08-30T02:47:39;17.20;90.00
4578;DHT22;2301;47.354;8.528;2023-08-30T02:50:07;17.30;90.10
4578;DHT22;2301;47.354;8.528;2023-08-30T02:52:35;17.30;90.00
4578;DHT22;2301;47.354;8.528;2023-08-30T02:55:02;17.30;90.00
4578;DHT22;2301;47.354;8.528;2023-08-30T02:57:29;17.30;90.00
4578;DHT22;2301;47.354;8.528;2023-08-30T02:59:56;17.30;90.00
4578;DHT22;2301;47.354;8.528;2023-08-30T03:02:23;17.30;90.00
4578;DHT22;2301;47.354;8.528;2023-08-30T03:04:50;17.30;89.70
4578;DHT22;2301;47.354;8.528;2023-08-30T03:07:17;17.30;89.80
4578;DHT22;2301;47.354;8.528;2023-08-30T03:09:45;17.40;89.80
4578;DHT22;2301;47.354;8.528;2023-08-30T03:12:12;17.40;89.60
4578;DHT22;2301;47.354;8.528;2023-08-30T03:14:39;17.40;89.60
4578;DHT22;2301;47.354;8.528;2023-08-30T03:17:06;17.40;89.50
4578;DHT22;2301;47.354;8.528;2023-08-30T03:19:33;17.40;89.50
4578;DHT22;2301;47.354;8.528;2023-08-30T03:22:00;17.30;89.50
4578;DHT22;2301;47.354;8.528;2023-08-30T03:24:26;17.40;89.70
4578;DHT22;2301;47.354;8.528;2023-08-30T03:26:55;17.40;89.50
4578;DHT22;2301;47.354;8.528;2023-08-30T03:29:21;17.30;89.50
4578;DHT22;2301;47.354;8.528;2023-08-30T03:31:48;17.30;89.40
4578;DHT22;2301;47.354;8.528;2023-08-30T03:34:15;17.30;89.40
4578;DHT22;2301;47.354;8.528;2023-08-30T03:36:42;17.30;89.40
4578;DHT22;2301;47.354;8.528;2023-08-30T03:39:10;17.30;89.40
4578;DHT22;2301;47.354;8.528;2023-08-30T03:41:37;17.30;89.30
4578;DHT22;2301;47.354;8.528;2023-08-30T03:44:06;17.30;89.40
4578;DHT22;2301;47.354;8.528;2023-08-30T03:46:33;17.30;89.70
4578;DHT22;2301;47.354;8.528;2023-08-30T03:48:59;17.30;89.50
4578;DHT22;2301;47.354;8.528;2023-08-30T03:51:26;17.30;89.20
4578;DHT22;2301;47.354;8.528;2023-08-30T03:53:53;17.20;88.90
4578;DHT22;2301;47.354;8.528;2023-08-30T03:56:21;17.20;89.00
4578;DHT22;2301;47.354;8.528;2023-08-30T03:58:48;17.20;89.10
4578;DHT22;2301;47.354;8.528;2023-08-30T04:01:16;17.20;89.30
4578;DHT22;2301;47.354;8.528;2023-08-30T04:03:43;17.20;89.50
4578;DHT22;2301;47.354;8.528;2023-08-30T04:06:10;17.20;89.60
4578;DHT22;2301;47.354;8.528;2023-08-30T04:08:37;17.20;90.20
4578;DHT22;2301;47.354;8.528;2023-08-30T04:11:04;17.20;89.70
4578;DHT22;2301;47.354;8.528;2023-08-30T04:13:31;17.20;89.60
4578;DHT22;2301;47.354;8.528;2023-08-30T04:15:59;17.20;90.00
4578;DHT22;2301;47.354;8.528;2023-08-30T04:18:27;17.20;90.00
4578;DHT22;2301;47.354;8.528;2023-08-30T04:20:57;17.30;90.00
4578;DHT22;2301;47.354;8.528;2023-08-30T04:23:24;17.30;90.00
4578;DHT22;2301;47.354;8.528;2023-08-30T04:25:52;17.30;90.00
4578;DHT22;2301;47.354;8.528;2023-08-30T04:28:19;17.40;89.90
4578;DHT22;2301;47.354;8.528;2023-08-30T04:30:46;17.40;89.60
4578;DHT22;2301;47.354;8.528;2023-08-30T04:33:14;17.40;89.40
4578;DHT22;2301;47.354;8.528;2023-08-30T04:35:50;17.40;89.40
4578;DHT22;2301;47.354;8.528;2023-08-30T04:38:18;17.40;89.20
4578;DHT22;2301;47.354;8.528;2023-08-30T04:40:45;17.40;89.20
4578;DHT22;2301;47.354;8.528;2023-08-30T04:43:12;17.40;89.10
4578;DHT22;2301;47.354;8.528;2023-08-30T04:45:39;17.40;89.10
4578;DHT22;2301;47.354;8.528;2023-08-30T04:48:06;17.40;89.40
4578;DHT22;2301;47.354;8.528;2023-08-30T04:50:33;17.40;88.90
4578;DHT22;2301;47.354;8.528;2023-08-30T04:53:01;17.30;89.00
4578;DHT22;2301;47.354;8.528;2023-08-30T04:55:29;17.30;89.40
4578;DHT22;2301;47.354;8.528;2023-08-30T04:57:56;17.30;90.00
4578;DHT22;2301;47.354;8.528;2023-08-30T05:00:23;17.20;89.20
4578;DHT22;2301;47.354;8.528;2023-08-30T05:02:50;17.30;89.30
4578;DHT22;2301;47.354;8.528;2023-08-30T05:05:17;17.30;89.50
4578;DHT22;2301;47.354;8.528;2023-08-30T05:07:44;17.30;89.50
4578;DHT22;2301;47.354;8.528;2023-08-30T05:10:12;17.30;89.40
4578;DHT22;2301;47.354;8.528;2023-08-30T05:12:39;17.30;89.60
4578;DHT22;2301;47.354;8.528;2023-08-30T05:15:08;17.40;89.40
4578;DHT22;2301;47.354;8.528;2023-08-30T05:17:35;17.40;89.40
4578;DHT22;2301;47.354;8.528;2023-08-30T05:20:03;17.40;89.40
4578;DHT22;2301;47.354;8.528;2023-08-30T05:22:30;17.40;89.30
4578;DHT22;2301;47.354;8.528;2023-08-30T05:24:57;17.50;89.30
4578;DHT22;2301;47.354;8.528;2023-08-30T05:27:25;17.50;89.20
4578;DHT22;2301;47.354;8.528;2023-08-30T05:29:52;17.50;89.00
4578;DHT22;2301;47.354;8.528;2023-08-30T05:32:19;17.50;89.20
4578;DHT22;2301;47.354;8.528;2023-08-30T05:34:46;17.50;89.00
4578;DHT22;2301;47.354;8.528;2023-08-30T05:37:12;17.50;89.00
4578;DHT22;2301;47.354;8.528;2023-08-30T05:39:39;17.40;89.00
4578;DHT22;2301;47.354;8.528;2023-08-30T05:42:06;17.40;89.10
4578;DHT22;2301;47.354;8.528;2023-08-30T05:44:35;17.50;89.30
4578;DHT22;2301;47.354;8.528;2023-08-30T05:47:01;17.50;89.20
4578;DHT22;2301;47.354;8.528;2023-08-30T05:49:28;17.50;89.20
4578;DHT22;2301;47.354;8.528;2023-08-30T05:51:55;17.50;89.20
4578;DHT22;2301;47.354;8.528;2023-08-30T05:54:22;17.60;89.10
4578;DHT22;2301;47.354;8.528;2023-08-30T05:56:52;17.60;88.80
4578;DHT22;2301;47.354;8.528;2023-08-30T05:59:19;17.60;88.60
4578;DHT22;2301;47.354;8.528;2023-08-30T06:01:47;17.60;88.50
4578;DHT22;2301;47.354;8.528;2023-08-30T06:04:14;17.60;88.50
4578;DHT22;2301;47.354;8.528;2023-08-30T06:06:41;17.60;88.30
4578;DHT22;2301;47.354;8.528;2023-08-30T06:09:08;17.60;88.30
4578;DHT22;2301;47.354;8.528;2023-08-30T06:11:35;17.60;88.20
4578;DHT22;2301;47.354;8.528;2023-08-30T06:14:02;17.60;88.50
4578;DHT22;2301;47.354;8.528;2023-08-30T06:16:29;17.60;88.50
4578;DHT22;2301;47.354;8.528;2023-08-30T06:18:57;17.70;88.50
4578;DHT22;2301;47.354;8.528;2023-08-30T06:21:25;17.60;87.60
4578;DHT22;2301;47.354;8.528;2023-08-30T06:23:51;17.50;87.00
4578;DHT22;2301;47.354;8.528;2023-08-30T06:26:18;17.40;87.00
4578;DHT22;2301;47.354;8.528;2023-08-30T06:28:45;17.40;87.40
4578;DHT22;2301;47.354;8.528;2023-08-30T06:31:12;17.30;87.50
4578;DHT22;2301;47.354;8.528;2023-08-30T06:33:39;17.20;87.30
4578;DHT22;2301;47.354;8.528;2023-08-30T06:36:08;17.20;87.50
4578;DHT22;2301;47.354;8.528;2023-08-30T06:38:36;17.10;88.10
4578;DHT22;2301;47.354;8.528;2023-08-30T06:41:03;17.10;87.80
4578;DHT22;2301;47.354;8.528;2023-08-30T06:43:30;17.20;88.90
4578;DHT22;2301;47.354;8.528;2023-08-30T06:45:57;17.20;88.10
4578;DHT22;2301;47.354;8.528;2023-08-30T06:48:25;17.30;88.00
4578;DHT22;2301;47.354;8.528;2023-08-30T06:50:52;17.40;88.30
4578;DHT22;2301;47.354;8.528;2023-08-30T06:53:20;17.40;88.30
4578;DHT22;2301;47.354;8.528;2023-08-30T06:55:56;17.50;88.00
4578;DHT22;2301;47.354;8.528;2023-08-30T06:58:23;17.70;87.30
4578;DHT22;2301;47.354;8.528;2023-08-30T07:00:50;17.80;86.10
4578;DHT22;2301;47.354;8.528;2023-08-30T07:03:17;18.00;86.80
4578;DHT22;2301;47.354;8.528;2023-08-30T07:05:44;18.10;87.00
4578;DHT22;2301;47.354;8.528;2023-08-30T07:08:13;18.30;86.50
4578;DHT22;2301;47.354;8.528;2023-08-30T07:10:41;18.40;85.50
4578;DHT22;2301;47.354;8.528;2023-08-30T07:13:08;18.50;85.10
4578;DHT22;2301;47.354;8.528;2023-08-30T07:15:38;18.70;85.00
4578;DHT22;2301;47.354;8.528;2023-08-30T07:18:06;18.90;85.40
4578;DHT22;2301;47.354;8.528;2023-08-30T07:20:33;19.10;85.00
4578;DHT22;2301;47.354;8.528;2023-08-30T07:23:01;19.20;83.30
4578;DHT22;2301;47.354;8.528;2023-08-30T07:25:27;19.50;83.60
4578;DHT22;2301;47.354;8.528;2023-08-30T07:27:57;19.80;83.80
4578;DHT22;2301;47.354;8.528;2023-08-30T07:30:24;20.30;82.50
4578;DHT22;2301;47.354;8.528;2023-08-30T07:32:51;20.80;80.80
4578;DHT22;2301;47.354;8.528;2023-08-30T07:35:18;21.40;78.30
4578;DHT22;2301;47.354;8.528;2023-08-30T07:37:45;21.90;76.40
4578;DHT22;2301;47.354;8.528;2023-08-30T07:40:12;22.40;74.70
4578;DHT22;2301;47.354;8.528;2023-08-30T07:42:39;22.60;72.60
4578;DHT22;2301;47.354;8.528;2023-08-30T07:45:08;22.70;71.50
4578;DHT22;2301;47.354;8.528;2023-08-30T07:47:36;22.80;71.20
4578;DHT22;2301;47.354;8.528;2023-08-30T07:50:05;22.80;70.10
4578;DHT22;2301;47.354;8.528;2023-08-30T07:52:32;22.80;69.80
4578;DHT22;2301;47.354;8.528;2023-08-30T07:54:59;22.90;69.90
4578;DHT22;2301;47.354;8.528;2023-08-30T07:57:26;23.00;69.20
4578;DHT22;2301;47.354;8.528;2023-08-30T07:59:52;23.20;68.60
4578;DHT22;2301;47.354;8.528;2023-08-30T08:02:21;23.50;67.70
4578;DHT22;2301;47.354;8.528;2023-08-30T08:04:48;23.80;66.60
4578;DHT22;2301;47.354;8.528;2023-08-30T08:07:15;24.00;66.00
4578;DHT22;2301;47.354;8.528;2023-08-30T08:09:42;24.10;64.30
4578;DHT22;2301;47.354;8.528;2023-08-30T08:12:09;24.00;63.40
4578;DHT22;2301;47.354;8.528;2023-08-30T08:14:36;24.00;63.70
4578;DHT22;2301;47.354;8.528;2023-08-30T08:17:04;24.00;64.20
4578;DHT22;2301;47.354;8.528;2023-08-30T08:19:32;24.10;64.00
4578;DHT22;2301;47.354;8.528;2023-08-30T08:22:04;24.40;64.00
4578;DHT22;2301;47.354;8.528;2023-08-30T08:24:31;24.60;62.20
4578;DHT22;2301;47.354;8.528;2023-08-30T08:26:58;24.80;61.00
4578;DHT22;2301;47.354;8.528;2023-08-30T08:29:26;24.80;59.60
4578;DHT22;2301;47.354;8.528;2023-08-30T08:31:53;24.80;59.90
4578;DHT22;2301;47.354;8.528;2023-08-30T08:34:20;24.80;60.20
4578;DHT22;2301;47.354;8.528;2023-08-30T08:36:48;24.80;60.40
4578;DHT22;2301;47.354;8.528;2023-08-30T08:39:15;24.90;60.40
4578;DHT22;2301;47.354;8.528;2023-08-30T08:41:44;25.00;60.80
4578;DHT22;2301;47.354;8.528;2023-08-30T08:44:13;25.20;59.20
4578;DHT22;2301;47.354;8.528;2023-08-30T08:46:41;25.30;58.00
4578;DHT22;2301;47.354;8.528;2023-08-30T08:49:11;25.40;57.30
4578;DHT22;2301;47.354;8.528;2023-08-30T08:51:39;25.20;56.30
4578;DHT22;2301;47.354;8.528;2023-08-30T08:54:08;25.10;57.50
4578;DHT22;2301;47.354;8.528;2023-08-30T08:56:36;25.10;59.30
4578;DHT22;2301;47.354;8.528;2023-08-30T08:59:04;25.10;58.10
4578;DHT22;2301;47.354;8.528;2023-08-30T09:01:33;25.10;58.50
4578;DHT22;2301;47.354;8.528;2023-08-30T09:04:04;25.20;58.10
4578;DHT22;2301;47.354;8.528;2023-08-30T09:06:32;25.30;58.10
4578;DHT22;2301;47.354;8.528;2023-08-30T09:09:00;25.40;58.30
4578;DHT22;2301;47.354;8.528;2023-08-30T09:11:28;25.40;58.40
4578;DHT22;2301;47.354;8.528;2023-08-30T09:13:56;25.10;57.90
4578;DHT22;2301;47.354;8.528;2023-08-30T09:16:23;24.80;58.50
4578;DHT22;2301;47.354;8.528;2023-08-30T09:19:00;24.60;58.30
4578;DHT22;2301;47.354;8.528;2023-08-30T09:21:27;24.30;57.70
4578;DHT22;2301;47.354;8.528;2023-08-30T09:23:58;24.10;58.30
4578;DHT22;2301;47.354;8.528;2023-08-30T09:26:25;24.00;58.10
4578;DHT22;2301;47.354;8.528;2023-08-30T09:28:55;23.80;58.50
4578;DHT22;2301;47.354;8.528;2023-08-30T09:31:22;23.70;58.90
4578;DHT22;2301;47.354;8.528;2023-08-30T09:33:49;23.70;58.50
4578;DHT22;2301;47.354;8.528;2023-08-30T09:36:16;23.70;58.80
4578;DHT22;2301;47.354;8.528;2023-08-30T09:38:48;24.00;59.00
4578;DHT22;2301;47.354;8.528;2023-08-30T09:41:16;24.30;57.60
4578;DHT22;2301;47.354;8.528;2023-08-30T09:43:44;24.40;57.50
4578;DHT22;2301;47.354;8.528;2023-08-30T09:46:14;24.80;58.10
4578;DHT22;2301;47.354;8.528;2023-08-30T09:48:41;25.00;57.70
4578;DHT22;2301;47.354;8.528;2023-08-30T09:51:08;24.90;57.10
4578;DHT22;2301;47.354;8.528;2023-08-30T09:53:42;24.60;56.40
4578;DHT22;2301;47.354;8.528;2023-08-30T09:56:12;24.40;56.80
4578;DHT22;2301;47.354;8.528;2023-08-30T09:58:40;24.20;57.40
4578;DHT22;2301;47.354;8.528;2023-08-30T10:01:08;24.20;58.20
4578;DHT22;2301;47.354;8.528;2023-08-30T10:03:37;24.10;58.10
4578;DHT22;2301;47.354;8.528;2023-08-30T10:06:04;23.90;58.50
4578;DHT22;2301;47.354;8.528;2023-08-30T10:08:33;23.80;58.40
4578;DHT22;2301;47.354;8.528;2023-08-30T10:11:02;23.70;58.30
4578;DHT22;2301;47.354;8.528;2023-08-30T10:13:29;23.50;57.90
4578;DHT22;2301;47.354;8.528;2023-08-30T10:16:00;23.50;58.20
4578;DHT22;2301;47.354;8.528;2023-08-30T10:18:32;23.50;58.50
4578;DHT22;2301;47.354;8.528;2023-08-30T10:21:02;23.50;56.90
4578;DHT22;2301;47.354;8.528;2023-08-30T10:23:33;23.40;56.60
4578;DHT22;2301;47.354;8.528;2023-08-30T10:26:01;23.30;57.20
4578;DHT22;2301;47.354;8.528;2023-08-30T10:28:29;23.30;57.90
4578;DHT22;2301;47.354;8.528;2023-08-30T10:30:57;23.40;58.10
4578;DHT22;2301;47.354;8.528;2023-08-30T10:33:24;23.70;58.10
4578;DHT22;2301;47.354;8.528;2023-08-30T10:35:52;23.90;57.60
4578;DHT22;2301;47.354;8.528;2023-08-30T10:38:28;23.90;57.50
4578;DHT22;2301;47.354;8.528;2023-08-30T10:41:06;24.10;57.50
4578;DHT22;2301;47.354;8.528;2023-08-30T10:43:35;24.30;56.50
4578;DHT22;2301;47.354;8.528;2023-08-30T10:46:02;24.50;56.80
4578;DHT22;2301;47.354;8.528;2023-08-30T10:48:37;24.70;56.60
4578;DHT22;2301;47.354;8.528;2023-08-30T10:51:20;24.80;55.50
4578;DHT22;2301;47.354;8.528;2023-08-30T10:53:58;24.70;54.10
4578;DHT22;2301;47.354;8.528;2023-08-30T10:56:28;24.50;54.20
4578;DHT22;2301;47.354;8.528;2023-08-30T10:58:58;24.50;54.50
4578;DHT22;2301;47.354;8.528;2023-08-30T11:01:25;24.70;54.80
4578;DHT22;2301;47.354;8.528;2023-08-30T11:03:52;24.80;53.80
4578;DHT22;2301;47.354;8.528;2023-08-30T11:06:19;25.00;52.70
4578;DHT22;2301;47.354;8.528;2023-08-30T11:08:47;24.80;52.30
4578;DHT22;2301;47.354;8.528;2023-08-30T11:11:16;24.60;52.10
4578;DHT22;2301;47.354;8.528;2023-08-30T11:13:43;24.40;54.30
4578;DHT22;2301;47.354;8.528;2023-08-30T11:16:10;24.30;54.20
4578;DHT22;2301;47.354;8.528;2023-08-30T11:18:37;24.20;53.90
4578;DHT22;2301;47.354;8.528;2023-08-30T11:21:05;24.30;54.40
4578;DHT22;2301;47.354;8.528;2023-08-30T11:23:33;24.50;54.60
4578;DHT22;2301;47.354;8.528;2023-08-30T11:26:01;24.60;54.10
4578;DHT22;2301;47.354;8.528;2023-08-30T11:28:30;24.70;53.70
4578;DHT22;2301;47.354;8.528;2023-08-30T11:30:57;24.80;52.50
4578;DHT22;2301;47.354;8.528;2023-08-30T11:33:24;24.80;50.90
4578;DHT22;2301;47.354;8.528;2023-08-30T11:35:51;24.90;51.40
4578;DHT22;2301;47.354;8.528;2023-08-30T11:38:19;25.00;51.80
4578;DHT22;2301;47.354;8.528;2023-08-30T11:40:49;25.00;52.10
4578;DHT22;2301;47.354;8.528;2023-08-30T11:43:17;25.00;51.70
4578;DHT22;2301;47.354;8.528;2023-08-30T11:45:46;25.00;51.80
4578;DHT22;2301;47.354;8.528;2023-08-30T11:48:13;24.90;51.00
4578;DHT22;2301;47.354;8.528;2023-08-30T11:50:41;24.80;50.70
4578;DHT22;2301;47.354;8.528;2023-08-30T11:53:09;24.70;50.50
4578;DHT22;2301;47.354;8.528;2023-08-30T11:55:37;24.60;51.60
4578;DHT22;2301;47.354;8.528;2023-08-30T11:58:04;24.70;52.00
4578;DHT22;2301;47.354;8.528;2023-08-30T12:00:33;24.90;52.70
4578;DHT22;2301;47.354;8.528;2023-08-30T12:03:02;24.90;51.10
4578;DHT22;2301;47.354;8.528;2023-08-30T12:05:32;24.90;49.50
4578;DHT22;2301;47.354;8.528;2023-08-30T12:08:00;24.90;49.60
4578;DHT22;2301;47.354;8.528;2023-08-30T12:10:29;24.90;49.70
4578;DHT22;2301;47.354;8.528;2023-08-30T12:12:57;24.80;50.00
4578;DHT22;2301;47.354;8.528;2023-08-30T12:15:24;24.90;51.60
4578;DHT22;2301;47.354;8.528;2023-08-30T12:17:53;25.00;51.80
4578;DHT22;2301;47.354;8.528;2023-08-30T12:20:22;25.10;52.00
4578;DHT22;2301;47.354;8.528;2023-08-30T12:22:49;25.10;51.60
4578;DHT22;2301;47.354;8.528;2023-08-30T12:25:17;25.10;51.20
4578;DHT22;2301;47.354;8.528;2023-08-30T12:27:45;25.00;50.70
4578;DHT22;2301;47.354;8.528;2023-08-30T12:30:12;24.80;49.90
4578;DHT22;2301;47.354;8.528;2023-08-30T12:32:39;24.70;49.90
4578;DHT22;2301;47.354;8.528;2023-08-30T12:35:07;24.50;50.20
4578;DHT22;2301;47.354;8.528;2023-08-30T12:37:36;24.60;50.20
4578;DHT22;2301;47.354;8.528;2023-08-30T12:40:03;24.70;50.10
4578;DHT22;2301;47.354;8.528;2023-08-30T12:42:31;24.80;50.40
4578;DHT22;2301;47.354;8.528;2023-08-30T12:44:58;25.00;50.70
4578;DHT22;2301;47.354;8.528;2023-08-30T12:47:25;25.00;50.00
4578;DHT22;2301;47.354;8.528;2023-08-30T12:49:52;24.90;49.70
4578;DHT22;2301;47.354;8.528;2023-08-30T12:52:19;24.80;50.30
4578;DHT22;2301;47.354;8.528;2023-08-30T12:54:47;24.70;50.00
4578;DHT22;2301;47.354;8.528;2023-08-30T12:57:14;24.50;50.20
4578;DHT22;2301;47.354;8.528;2023-08-30T12:59:41;24.40;50.20
4578;DHT22;2301;47.354;8.528;2023-08-30T13:02:08;24.20;50.00
4578;DHT22;2301;47.354;8.528;2023-08-30T13:04:35;24.10;50.40
4578;DHT22;2301;47.354;8.528;2023-08-30T13:07:03;24.00;52.20
4578;DHT22;2301;47.354;8.528;2023-08-30T13:09:30;24.00;52.00
4578;DHT22;2301;47.354;8.528;2023-08-30T13:11:59;23.90;52.10
4578;DHT22;2301;47.354;8.528;2023-08-30T13:14:26;23.90;52.20
4578;DHT22;2301;47.354;8.528;2023-08-30T13:16:53;23.90;52.50
4578;DHT22;2301;47.354;8.528;2023-08-30T13:19:19;23.90;52.40
4578;DHT22;2301;47.354;8.528;2023-08-30T13:21:46;24.00;51.90
4578;DHT22;2301;47.354;8.528;2023-08-30T13:24:13;23.90;51.20
4578;DHT22;2301;47.354;8.528;2023-08-30T13:26:41;23.80;51.60
4578;DHT22;2301;47.354;8.528;2023-08-30T13:29:09;23.80;52.40
4578;DHT22;2301;47.354;8.528;2023-08-30T13:31:36;23.70;52.90
4578;DHT22;2301;47.354;8.528;2023-08-30T13:34:03;23.70;53.10
4578;DHT22;2301;47.354;8.528;2023-08-30T13:36:30;23.60;54.40
4578;DHT22;2301;47.354;8.528;2023-08-30T13:38:57;23.50;55.10
4578;DHT22;2301;47.354;8.528;2023-08-30T13:41:24;23.40;55.50
4578;DHT22;2301;47.354;8.528;2023-08-30T13:43:50;23.30;55.80
4578;DHT22;2301;47.354;8.528;2023-08-30T13:46:19;23.20;55.90
4578;DHT22;2301;47.354;8.528;2023-08-30T13:48:46;23.20;56.10
4578;DHT22;2301;47.354;8.528;2023-08-30T13:51:13;23.10;55.80
4578;DHT22;2301;47.354;8.528;2023-08-30T13:53:40;23.10;55.50
4578;DHT22;2301;47.354;8.528;2023-08-30T13:56:07;23.20;55.50
4578;DHT22;2301;47.354;8.528;2023-08-30T13:58:34;23.40;55.40
4578;DHT22;2301;47.354;8.528;2023-08-30T14:01:02;23.40;55.10
4578;DHT22;2301;47.354;8.528;2023-08-30T14:03:30;23.50;54.70
4578;DHT22;2301;47.354;8.528;2023-08-30T14:05:58;23.60;54.40
4578;DHT22;2301;47.354;8.528;2023-08-30T14:08:25;23.60;55.10
4578;DHT22;2301;47.354;8.528;2023-08-30T14:10:52;23.60;54.70
4578;DHT22;2301;47.354;8.528;2023-08-30T14:13:19;23.60;54.70
4578;DHT22;2301;47.354;8.528;2023-08-30T14:15:46;23.60;54.60
4578;DHT22;2301;47.354;8.528;2023-08-30T14:18:14;23.60;54.60
4578;DHT22;2301;47.354;8.528;2023-08-30T14:20:43;23.70;54.70
4578;DHT22;2301;47.354;8.528;2023-08-30T14:23:10;23.70;54.90
4578;DHT22;2301;47.354;8.528;2023-08-30T14:25:37;23.70;55.10
4578;DHT22;2301;47.354;8.528;2023-08-30T14:28:04;23.80;55.10
4578;DHT22;2301;47.354;8.528;2023-08-30T14:30:31;24.00;55.20
4578;DHT22;2301;47.354;8.528;2023-08-30T14:32:58;24.10;54.60
4578;DHT22;2301;47.354;8.528;2023-08-30T14:35:25;24.20;54.90
4578;DHT22;2301;47.354;8.528;2023-08-30T14:37:54;24.30;55.10
4578;DHT22;2301;47.354;8.528;2023-08-30T14:40:21;24.30;55.10
4578;DHT22;2301;47.354;8.528;2023-08-30T14:42:48;24.40;54.50
4578;DHT22;2301;47.354;8.528;2023-08-30T14:45:15;24.40;53.30
4578;DHT22;2301;47.354;8.528;2023-08-30T14:47:43;24.40;53.20
4578;DHT22;2301;47.354;8.528;2023-08-30T14:50:10;24.30;53.20
4578;DHT22;2301;47.354;8.528;2023-08-30T14:52:37;24.30;54.10
4578;DHT22;2301;47.354;8.528;2023-08-30T14:55:06;24.20;54.20
4578;DHT22;2301;47.354;8.528;2023-08-30T14:57:33;24.10;54.00
4578;DHT22;2301;47.354;8.528;2023-08-30T15:00:00;23.90;53.20
4578;DHT22;2301;47.354;8.528;2023-08-30T15:02:27;23.80;53.70
4578;DHT22;2301;47.354;8.528;2023-08-30T15:04:56;23.70;53.60
4578;DHT22;2301;47.354;8.528;2023-08-30T15:07:23;23.70;54.60
4578;DHT22;2301;47.354;8.528;2023-08-30T15:09:50;23.60;54.90
4578;DHT22;2301;47.354;8.528;2023-08-30T15:12:18;23.60;56.00
4578;DHT22;2301;47.354;8.528;2023-08-30T15:14:45;23.50;55.50
4578;DHT22;2301;47.354;8.528;2023-08-30T15:17:14;23.30;55.00
4578;DHT22;2301;47.354;8.528;2023-08-30T15:19:41;23.30;54.70
4578;DHT22;2301;47.354;8.528;2023-08-30T15:22:07;23.20;55.80
4578;DHT22;2301;47.354;8.528;2023-08-30T15:24:34;23.10;55.40
4578;DHT22;2301;47.354;8.528;2023-08-30T15:27:01;23.10;54.90
4578;DHT22;2301;47.354;8.528;2023-08-30T15:29:30;23.00;54.60
4578;DHT22;2301;47.354;8.528;2023-08-30T15:31:56;22.90;54.60
4578;DHT22;2301;47.354;8.528;2023-08-30T15:34:23;22.90;54.50
4578;DHT22;2301;47.354;8.528;2023-08-30T15:36:50;22.80;54.60
4578;DHT22;2301;47.354;8.528;2023-08-30T15:39:17;22.70;54.80
4578;DHT22;2301;47.354;8.528;2023-08-30T15:41:44;22.70;54.90
4578;DHT22;2301;47.354;8.528;2023-08-30T15:44:12;22.60;55.20
4578;DHT22;2301;47.354;8.528;2023-08-30T15:46:40;22.60;55.10
4578;DHT22;2301;47.354;8.528;2023-08-30T15:49:07;22.60;55.80
4578;DHT22;2301;47.354;8.528;2023-08-30T15:51:34;22.60;56.10
4578;DHT22;2301;47.354;8.528;2023-08-30T15:54:01;22.50;55.80
4578;DHT22;2301;47.354;8.528;2023-08-30T15:56:28;22.50;55.70
4578;DHT22;2301;47.354;8.528;2023-08-30T15:58:55;22.40;56.00
4578;DHT22;2301;47.354;8.528;2023-08-30T16:01:23;22.40;56.30
4578;DHT22;2301;47.354;8.528;2023-08-30T16:03:53;22.30;56.10
4578;DHT22;2301;47.354;8.528;2023-08-30T16:06:25;22.30;56.30